Amo, Colorado
Current Conditions -  °F | °C
As of 9:54 PM on Sunday 21 Dec 2014 (Local Time) from KFLY Reporting Station
Clear Clear  
Wind Chill: 25°   Ceiling: Unl
Heat Index: 33°   Visibility: 10mi
Dew Point: 32°   Wind: 10mph
Humidity: 94%   Direction: 20°NNE
Pressure: 29.64"   Gusts: NA
Location:  39.0051°N, 104.503°W
Report Text: KFLY 220454Z AUTO 02009KT 10SM CLR 01/00 A2964 RMK AO2 T00071001
Loading
Personal Weather Stations






























Interactive Weather Map New forecast layout! Learn more

10-Day Weather Forecast

Advertisements
Track Severe Weather on mobile